David C. Devall — WCP2979 — position and weather

sailwx.info

Track history (hours):
 
Tides and Currents Weather Stations Pressure Air Temp Water Temp Dewpoint Dewpoint Depression Visibility Wind Speed Wind Dir Waves Ship Positions

David C. Devall

Owner: DAVID C DEVALL INC, HACKBERRY, LA. More information available from US FCC via Universal Licensing System and Coast Guard Vessel Documentation Center.

Last reported at 2018-Jul-22 22:00 UTC. Time now 2018-Jul-22 22:11 UTC.
Position N 30°04' W 093°21'.

Length 17 m; draft 8.5 m.

Type: Towing. MMSI: 366973440.

Date/timePositionNaut miles runAvg speedWind from/ knotsBaromVisibWave heightAir tempDewpointWater temp
2018-Jul-22 22:00N 30°04' W 093°21'0 0.0
2018-Jul-22 21:30N 30°04' W 093°21'0 0.0
2018-Jul-22 21:00N 30°04' W 093°21'0 0.0
2018-Jul-22 20:30N 30°04' W 093°21'0 0.0
2018-Jul-22 20:00N 30°04' W 093°21'0 0.9
2018-Jul-22 19:30N 30°04' W 093°21'1 1.3
2018-Jul-22 19:00N 30°04' W 093°20'0 0.0
2018-Jul-22 18:30N 30°04' W 093°20'0 0.0
2018-Jul-22 18:00N 30°04' W 093°20'0 0.0
2018-Jul-22 17:30N 30°04' W 093°20'0 0.0
2018-Jul-22 16:54N 30°04' W 093°20'0 0.0
2018-Jul-22 16:30N 30°04' W 093°20'0 0.1
2018-Jul-22 16:00N 30°04' W 093°20'1 1.2
2018-Jul-22 15:00N 30°06' W 093°20'0 0.0
2018-Jul-22 14:09N 30°06' W 093°20'0 0.0
2018-Jul-22 13:59N 30°06' W 093°20'0 0.0
2018-Jul-22 12:26N 30°06' W 093°20'0 0.0
2018-Jul-22 11:39N 30°06' W 093°20'0 0.0
2018-Jul-22 11:26N 30°06' W 093°20'0 0.0
2018-Jul-22 10:54N 30°06' W 093°20'0 0.0
2018-Jul-22 10:30N 30°06' W 093°20'0 0.0
2018-Jul-22 10:00N 30°06' W 093°20'0 0.0
2018-Jul-22 09:27N 30°06' W 093°20'0 0.0
2018-Jul-22 08:57N 30°06' W 093°20'0 0.0
2018-Jul-22 08:26N 30°06' W 093°20'0 0.0
2018-Jul-22 07:54N 30°06' W 093°20'0 0.0
2018-Jul-22 07:30N 30°06' W 093°20'0 0.0
2018-Jul-22 07:00N 30°06' W 093°20'0 0.0
2018-Jul-22 06:30N 30°06' W 093°20'0 0.0
2018-Jul-22 06:00N 30°06' W 093°20'0 0.0
2018-Jul-22 05:30N 30°06' W 093°20'0 0.0
2018-Jul-22 05:00N 30°06' W 093°20'1 1.5
2018-Jul-22 04:31N 30°05' W 093°20'1 1.4
2018-Jul-22 04:00N 30°06' W 093°20'0 0.2
2018-Jul-22 03:30N 30°06' W 093°20'0 0.3
2018-Jul-22 03:00N 30°06' W 093°20'0 0.3
2018-Jul-22 02:30N 30°06' W 093°20'2 4.1
2018-Jul-22 02:00N 30°08' W 093°20'2 4.2
2018-Jul-22 01:30N 30°10' W 093°19'2 4.3
2018-Jul-22 01:00N 30°12' W 093°18'2 4.3
2018-Jul-22 00:30N 30°13' W 093°16'1 2.6
2018-Jul-21 23:58N 30°14' W 093°15'1 3.1
2018-Jul-21 23:30N 30°15' W 093°14'1 1.4
2018-Jul-21 22:54N 30°15' W 093°14'1 3.2
2018-Jul-21 22:30N 30°15' W 093°12'0 0.4
2018-Jul-21 21:59N 30°15' W 093°12'0 0.1
2018-Jul-21 21:29N 30°15' W 093°12'1 2.3
2018-Jul-21 20:56N 30°15' W 093°14'1 2.4
2018-Jul-21 20:30N 30°15' W 093°15'1 1.6
2018-Jul-21 19:41N 30°14' W 093°15'0 0.0
2018-Jul-21 19:26N 30°14' W 093°15'1 3.0
2018-Jul-21 19:00N 30°13' W 093°16'3 6.0
2018-Jul-21 18:30N 30°11' W 093°19'3 5.8
2018-Jul-21 18:00N 30°08' W 093°20'3 5.4
2018-Jul-21 17:31N 30°06' W 093°20'0 0.3
2018-Jul-21 17:00N 30°06' W 093°20'3 6.8
2018-Jul-21 16:30N 30°09' W 093°20'3 6.1
2018-Jul-21 16:00N 30°12' W 093°18'3 5.6
2018-Jul-21 15:30N 30°14' W 093°15'0 0.6
2018-Jul-21 15:00N 30°14' W 093°15'0 0.0
2018-Jul-21 14:30N 30°14' W 093°15'0 0.8
2018-Jul-21 14:00N 30°14' W 093°15'0 0.8
2018-Jul-21 13:30N 30°14' W 093°15'1 2.0
2018-Jul-21 13:00N 30°13' W 093°14'1 2.5
2018-Jul-21 12:30N 30°13' W 093°16'2 3.5
2018-Jul-21 11:59N 30°12' W 093°18'2 3.6
2018-Jul-21 11:30N 30°10' W 093°19'2 3.2
2018-Jul-21 11:00N 30°09' W 093°20'2 3.2
2018-Jul-21 10:30N 30°07' W 093°20'2 3.1
2018-Jul-21 10:00N 30°06' W 093°20'1 2.7
2018-Jul-21 09:30N 30°05' W 093°20'1 2.6
2018-Jul-21 09:00N 30°04' W 093°21'2 4.0
2018-Jul-21 08:30N 30°04' W 093°24'2 4.8
2018-Jul-21 08:00N 30°04' W 093°26'1 1.3
2018-Jul-21 07:30N 30°04' W 093°27'1 2.2
2018-Jul-21 06:57N 30°04' W 093°28'2 4.1
2018-Jul-21 06:29N 30°04' W 093°31'1 1.5
2018-Jul-21 06:00N 30°04' W 093°32'1 1.0
2018-Jul-21 05:24N 30°04' W 093°32'0 0.0
2018-Jul-21 05:00N 30°04' W 093°32'0 0.4
2018-Jul-21 04:30N 30°04' W 093°32'2 2.6
2018-Jul-21 03:46N 30°04' W 093°35'3 5.1
2018-Jul-21 03:13N 30°04' W 093°38'3 5.5
2018-Jul-21 02:45N 30°04' W 093°41'2 5.8
2018-Jul-21 02:25N 30°03' W 093°43'2 5.8
2018-Jul-21 02:00N 30°01' W 093°45'3 5.8
2018-Jul-21 01:29N 29°59' W 093°47'3 5.8
2018-Jul-21 01:00N 29°58' W 093°50'3 5.4
2018-Jul-21 00:30N 29°59' W 093°54'3 6.8
2018-Jul-21 00:00N 30°00' W 093°57'3 5.3
2018-Jul-20 23:30N 30°01' W 094°00'3 5.5
2018-Jul-20 23:00N 30°03' W 094°02'3 5.8
2018-Jul-20 22:30N 30°05' W 094°05'0 0.5
2018-Jul-20 22:00N 30°05' W 094°05'3 5.2
2018-Jul-20 21:31N 30°04' W 094°02'3 5.4
2018-Jul-20 21:00N 30°01' W 094°01'3 5.8
2018-Jul-20 20:30N 30°01' W 093°58'3 5.7
2018-Jul-20 20:00N 29°59' W 093°55'3 5.7
2018-Jul-20 19:30N 29°59' W 093°52'3 5.2
2018-Jul-20 19:00N 29°59' W 093°49'3 5.8
2018-Jul-20 18:30N 30°00' W 093°46'3 5.8
2018-Jul-20 18:00N 30°03' W 093°44'3 5.7
2018-Jul-20 17:29N 30°04' W 093°40'3 5.9
2018-Jul-20 16:57N 30°04' W 093°37'3 5.7
2018-Jul-20 16:30N 30°04' W 093°34'3 5.7
2018-Jul-20 16:00N 30°04' W 093°31'3 5.8
2018-Jul-20 15:30N 30°04' W 093°27'3 5.8
2018-Jul-20 15:00N 30°04' W 093°24'3 5.4
2018-Jul-20 14:30N 30°04' W 093°21'3 6.0
2018-Jul-20 14:00N 30°06' W 093°19'0 0.4
2018-Jul-20 13:29N 30°06' W 093°18'1 2.9
2018-Jul-20 13:00N 30°06' W 093°20'0 0.0
2018-Jul-20 12:29N 30°06' W 093°20'0 0.0
2018-Jul-20 12:00N 30°06' W 093°20'0 0.0
2018-Jul-20 11:30N 30°06' W 093°20'0 0.0
2018-Jul-20 11:00N 30°06' W 093°20'0 0.0
2018-Jul-20 10:30N 30°06' W 093°20'0 0.0
2018-Jul-20 10:00N 30°06' W 093°20'0 0.0
2018-Jul-20 09:30N 30°06' W 093°20'0 0.0
2018-Jul-20 09:00N 30°06' W 093°20'0 0.0
2018-Jul-20 08:30N 30°06' W 093°20'0 0.0
2018-Jul-20 08:00N 30°06' W 093°20'0 0.0
2018-Jul-20 07:30N 30°06' W 093°20'0 0.0
2018-Jul-20 07:00N 30°06' W 093°20'0 0.0
2018-Jul-20 06:30N 30°06' W 093°20'0 0.0
2018-Jul-20 06:00N 30°06' W 093°20'0 0.0
2018-Jul-20 05:29N 30°06' W 093°20'0 0.1
2018-Jul-20 05:00N 30°06' W 093°20'0 0.1
2018-Jul-20 04:30N 30°06' W 093°20'1 1.9
2018-Jul-20 04:00N 30°06' W 093°19'1 1.0
2018-Jul-20 03:30N 30°06' W 093°19'2 3.8
2018-Jul-20 03:00N 30°04' W 093°21'0 0.1
2018-Jul-20 02:30N 30°04' W 093°21'2 3.3
2018-Jul-20 02:00N 30°06' W 093°19'1 1.6
2018-Jul-20 01:31N 30°06' W 093°19'1 2.8
2018-Jul-20 01:00N 30°05' W 093°20'0 0.0
2018-Jul-20 00:30N 30°05' W 093°20'0 0.0
2018-Jul-20 00:00N 30°05' W 093°20'0 0.0
2018-Jul-19 23:30N 30°05' W 093°20'0 0.0
2018-Jul-19 23:00N 30°05' W 093°20'2 3.6
2018-Jul-19 22:31N 30°04' W 093°21'0 0.0
2018-Jul-19 22:00N 30°04' W 093°21'0 0.0
2018-Jul-19 21:30N 30°04' W 093°21'0 0.0
2018-Jul-19 21:00N 30°04' W 093°21'0 0.0
2018-Jul-19 20:30N 30°04' W 093°21'0 0.0
2018-Jul-19 20:00N 30°04' W 093°21'0 0.0
2018-Jul-19 19:30N 30°04' W 093°21'0 0.0
2018-Jul-19 19:00N 30°04' W 093°21'0 0.0
2018-Jul-19 18:30N 30°04' W 093°21'1 1.5
2018-Jul-19 18:00N 30°04' W 093°21'0 0.4
2018-Jul-19 17:30N 30°04' W 093°20'0 0.2
2018-Jul-19 17:01N 30°04' W 093°20'0 0.0
2018-Jul-19 16:31N 30°04' W 093°20'0 0.2
2018-Jul-19 16:00N 30°05' W 093°20'1 1.4
2018-Jul-19 15:30N 30°05' W 093°20'2 3.8
2018-Jul-19 15:00N 30°07' W 093°20'4 4.1
2018-Jul-19 14:00N 30°11' W 093°19'2 4.4
2018-Jul-19 13:30N 30°12' W 093°17'1 2.5
2018-Jul-19 13:00N 30°14' W 093°17'0 0.0
2018-Jul-19 12:30N 30°14' W 093°17'0 0.2
2018-Jul-19 11:58N 30°13' W 093°17'0 0.2
2018-Jul-19 11:30N 30°14' W 093°17'0 0.2
2018-Jul-19 11:00N 30°13' W 093°17'1 1.4
2018-Jul-19 10:30N 30°13' W 093°17'3 5.5
2018-Jul-19 10:00N 30°11' W 093°19'3 5.4
2018-Jul-19 09:30N 30°08' W 093°20'3 5.0
2018-Jul-19 09:00N 30°06' W 093°20'0 0.0
2018-Jul-19 08:30N 30°06' W 093°20'0 0.0
2018-Jul-19 08:00N 30°06' W 093°20'0 0.0
2018-Jul-19 07:30N 30°06' W 093°20'0 0.0
2018-Jul-19 07:00N 30°06' W 093°20'0 0.0
2018-Jul-19 06:30N 30°06' W 093°20'0 0.0
2018-Jul-19 06:00N 30°06' W 093°20'0 0.7
2018-Jul-19 05:31N 30°06' W 093°19'3 5.1
2018-Jul-19 05:01N 30°04' W 093°21'0 0.1
2018-Jul-19 04:30N 30°04' W 093°21'2 4.8
2018-Jul-19 04:01N 30°06' W 093°20'0 0.5
2018-Jul-19 03:31N 30°06' W 093°20'3 5.4
2018-Jul-19 03:00N 30°04' W 093°22'2 4.4
2018-Jul-19 02:30N 30°05' W 093°20'0 0.2
2018-Jul-19 02:00N 30°05' W 093°20'0 0.0
2018-Jul-19 01:30N 30°05' W 093°20'0 0.0
2018-Jul-19 01:00N 30°05' W 093°20'0 0.0
2018-Jul-19 00:30N 30°05' W 093°20'0 0.0
2018-Jul-19 00:00N 30°05' W 093°20'0 0.5
2018-Jul-18 23:30N 30°05' W 093°20'2 3.5
2018-Jul-18 23:01N 30°04' W 093°21'1 1.1
2018-Jul-18 22:30N 30°04' W 093°21'2 4.3
2018-Jul-18 22:00N 30°06' W 093°20'3 5.2
2018-Jul-18 21:30N 30°09' W 093°20'2 4.9
2018-Jul-18 21:00N 30°11' W 093°19'3 5.2
2018-Jul-18 20:30N 30°12' W 093°16'2 3.9
2018-Jul-18 20:00N 30°13' W 093°14'2 3.9
2018-Jul-18 19:30N 30°15' W 093°14'1 1.4
2018-Jul-18 19:00N 30°15' W 093°14'2 2.8
2018-Jul-18 18:28N 30°15' W 093°12'2 3.4
2018-Jul-18 18:00N 30°15' W 093°14'1 1.3
2018-Jul-18 17:30N 30°15' W 093°15'2 3.4
2018-Jul-18 16:59N 30°13' W 093°15'3 5.8
2018-Jul-18 16:30N 30°12' W 093°18'3 6.3
2018-Jul-18 16:01N 30°09' W 093°20'3 6.4
2018-Jul-18 15:30N 30°06' W 093°20'1 2.1
2018-Jul-18 15:00N 30°05' W 093°20'0 0.0
2018-Jul-18 14:30N 30°05' W 093°20'2 2.2
2018-Jul-18 13:30N 30°04' W 093°22'0 0.7
2018-Jul-18 13:00N 30°04' W 093°21'0 1.0
2018-Jul-18 12:30N 30°04' W 093°21'0 0.0
2018-Jul-18 12:00N 30°04' W 093°21'0 0.0
2018-Jul-18 11:30N 30°04' W 093°21'0 0.2
2018-Jul-18 10:30N 30°04' W 093°21'2 3.5
2018-Jul-18 10:00N 30°06' W 093°20'1 2.0
2018-Jul-18 09:30N 30°05' W 093°20'0 0.7
2018-Jul-18 09:00N 30°04' W 093°20'0 0.1
2018-Jul-18 08:30N 30°04' W 093°20'1 2.8
2018-Jul-18 08:00N 30°06' W 093°20'3 6.0
2018-Jul-18 07:30N 30°08' W 093°20'0 0.8
2018-Jul-18 07:00N 30°09' W 093°20'2 3.3
2018-Jul-18 06:30N 30°07' W 093°20'2 4.7
2018-Jul-18 06:00N 30°05' W 093°20'1 2.7
2018-Jul-18 05:30N 30°04' W 093°21'0 0.4
2018-Jul-18 05:00N 30°04' W 093°21'0 0.0
2018-Jul-18 04:30N 30°04' W 093°21'0 0.0
2018-Jul-18 04:00N 30°04' W 093°21'0 0.2
2018-Jul-18 03:30N 30°04' W 093°21'0 0.2
2018-Jul-18 03:00N 30°04' W 093°21'0 1.0
2018-Jul-18 02:30N 30°04' W 093°22'1 1.6
2018-Jul-18 02:00N 30°04' W 093°23'0 0.6
2018-Jul-18 01:30N 30°04' W 093°22'1 1.9
2018-Jul-18 01:00N 30°04' W 093°21'2 3.8
2018-Jul-18 00:30N 30°05' W 093°20'0 0.0
2018-Jul-18 00:00N 30°05' W 093°20'0 0.0
2018-Jul-17 23:30N 30°05' W 093°20'1 1.5
2018-Jul-17 23:00N 30°04' W 093°20'1 2.9
2018-Jul-17 22:30N 30°04' W 093°22'0 0.8
2018-Jul-17 22:00N 30°04' W 093°21'0 0.0
2018-Jul-17 21:30N 30°04' W 093°21'0 0.0
2018-Jul-17 21:00N 30°04' W 093°21'1 1.2
2018-Jul-17 20:30N 30°04' W 093°22'2 3.9
2018-Jul-17 20:00N 30°05' W 093°20'1 1.7
2018-Jul-17 19:30N 30°06' W 093°20'0 0.7
2018-Jul-17 19:00N 30°05' W 093°20'3 5.3
2018-Jul-17 18:31N 30°04' W 093°22'2 4.3
2018-Jul-17 18:00N 30°05' W 093°20'0 0.0
2018-Jul-17 17:30N 30°05' W 093°20'2 3.5
2018-Jul-17 17:00N 30°04' W 093°21'1 1.9
2018-Jul-17 16:30N 30°04' W 093°20'1 1.6
2018-Jul-17 16:00N 30°05' W 093°20'1 1.7
2018-Jul-17 15:30N 30°04' W 093°21'3 5.4
2018-Jul-17 15:00N 30°07' W 093°20'3 6.0
2018-Jul-17 14:30N 30°10' W 093°19'0 0.9
2018-Jul-17 14:00N 30°10' W 093°19'1 2.0
2018-Jul-17 13:30N 30°11' W 093°18'2 4.2
2018-Jul-17 13:00N 30°13' W 093°17'1 1.9
2018-Jul-17 12:30N 30°14' W 093°17'0 0.1
2018-Jul-17 12:00N 30°14' W 093°17'2 5.0
2018-Jul-17 11:30N 30°11' W 093°18'3 5.9
2018-Jul-17 11:00N 30°09' W 093°20'3 5.5
2018-Jul-17 10:30N 30°06' W 093°20'2 3.2
2018-Jul-17 10:00N 30°05' W 093°20'0 0.1
2018-Jul-17 09:30N 30°05' W 093°20'1 1.0
2018-Jul-17 09:00N 30°05' W 093°20'0 0.4
2018-Jul-17 08:31N 30°05' W 093°20'0 0.8
2018-Jul-17 08:00N 30°05' W 093°20'0 0.0
2018-Jul-17 07:30N 30°05' W 093°20'0 0.0
2018-Jul-17 07:00N 30°05' W 093°20'0 0.0
2018-Jul-17 06:30N 30°05' W 093°20'0 0.0
2018-Jul-17 06:00N 30°05' W 093°20'0 0.0
2018-Jul-17 05:28N 30°05' W 093°20'0 0.0
2018-Jul-17 05:00N 30°05' W 093°20'0 0.0
2018-Jul-17 04:29N 30°05' W 093°20'0 0.0
2018-Jul-17 03:58N 30°05' W 093°20'0 0.0
2018-Jul-17 03:30N 30°05' W 093°20'0 0.0
2018-Jul-17 03:00N 30°05' W 093°20'0 0.0
2018-Jul-17 02:30N 30°05' W 093°20'0 0.0
2018-Jul-17 02:00N 30°05' W 093°20'0 0.0
2018-Jul-17 01:30N 30°05' W 093°20'0 0.0
2018-Jul-17 01:00N 30°05' W 093°20'0 0.0
2018-Jul-17 00:30N 30°05' W 093°20'0 0.0
2018-Jul-16 23:30N 30°05' W 093°20'0 0.0
2018-Jul-16 23:00N 30°05' W 093°20'0 0.6
2018-Jul-16 22:30N 30°05' W 093°20'0 0.0
2018-Jul-16 22:00N 30°05' W 093°20'2 3.6
2018-Jul-16 21:30N 30°07' W 093°20'3 5.7
2018-Jul-16 21:00N 30°10' W 093°19'3 5.8
2018-Jul-16 20:30N 30°12' W 093°17'3 5.0
2018-Jul-16 20:00N 30°13' W 093°15'0 1.0
2018-Jul-16 19:30N 30°14' W 093°15'1 2.6
2018-Jul-16 19:00N 30°13' W 093°16'3 5.5
2018-Jul-16 18:30N 30°11' W 093°18'3 5.5
2018-Jul-16 18:00N 30°09' W 093°20'3 6.0
2018-Jul-16 17:30N 30°06' W 093°20'0 0.4
2018-Jul-16 17:00N 30°06' W 093°20'2 4.0
2018-Jul-16 16:30N 30°07' W 093°18'0 0.1
2018-Jul-16 16:01N 30°07' W 093°18'0 0.2
2018-Jul-16 15:30N 30°07' W 093°18'3 5.1
2018-Jul-16 14:59N 30°05' W 093°20'0 0.0
2018-Jul-16 14:30N 30°05' W 093°20'0 0.0
2018-Jul-16 14:00N 30°05' W 093°20'0 0.6
2018-Jul-16 13:29N 30°04' W 093°20'0 0.0
2018-Jul-16 13:01N 30°04' W 093°20'0 0.7
2018-Jul-16 12:31N 30°05' W 093°20'0 0.1
2018-Jul-16 11:59N 30°05' W 093°20'0 0.5
2018-Jul-16 11:30N 30°05' W 093°20'0 0.4
2018-Jul-16 11:00N 30°05' W 093°20'1 1.5
2018-Jul-16 10:31N 30°04' W 093°21'1 1.6
2018-Jul-16 10:01N 30°04' W 093°21'1 1.9
2018-Jul-16 09:31N 30°04' W 093°21'1 1.9
2018-Jul-16 09:01N 30°05' W 093°20'0 0.1
2018-Jul-16 08:31N 30°05' W 093°20'0 0.2
2018-Jul-16 08:01N 30°05' W 093°20'0 1.0
2018-Jul-16 07:30N 30°05' W 093°20'1 1.6
2018-Jul-16 06:59N 30°04' W 093°21'0 0.1
2018-Jul-16 06:30N 30°04' W 093°21'0 0.0
2018-Jul-16 06:00N 30°04' W 093°21'2 3.1
2018-Jul-16 05:30N 30°04' W 093°22'0 0.1
2018-Jul-16 05:00N 30°04' W 093°22'1 2.0
2018-Jul-16 04:31N 30°04' W 093°21'2 3.3
2018-Jul-16 04:00N 30°05' W 093°20'2 4.3
2018-Jul-16 03:30N 30°07' W 093°20'2 4.9
2018-Jul-16 03:01N 30°10' W 093°19'3 5.1
2018-Jul-16 02:30N 30°12' W 093°18'2 3.9
2018-Jul-16 02:01N 30°13' W 093°17'0 0.9
2018-Jul-16 01:31N 30°13' W 093°17'3 6.0
2018-Jul-16 01:00N 30°11' W 093°19'3 6.0
2018-Jul-16 00:30N 30°08' W 093°20'3 5.5
2018-Jul-16 00:01N 30°05' W 093°20'0 0.0
2018-Jul-15 23:31N 30°05' W 093°20'0 0.0
2018-Jul-15 23:00N 30°05' W 093°20'2 3.3
2018-Jul-15 22:31N 30°07' W 093°20'2 4.8
2018-Jul-15 22:01N 30°09' W 093°20'0 0.4
2018-Jul-15 21:31N 30°09' W 093°20'3 5.8
2018-Jul-15 21:01N 30°06' W 093°20'1 2.9
2018-Jul-15 20:30N 30°05' W 093°20'1 1.2
2018-Jul-15 20:01N 30°05' W 093°20'0 0.3
2018-Jul-15 19:30N 30°05' W 093°20'1 1.5
2018-Jul-15 19:00N 30°04' W 093°20'0 0.2
2018-Jul-15 18:31N 30°05' W 093°20'1 1.4
2018-Jul-15 18:01N 30°05' W 093°20'0 0.0
2018-Jul-15 17:31N 30°05' W 093°20'0 0.0
2018-Jul-15 17:01N 30°05' W 093°20'0 0.0
2018-Jul-15 16:31N 30°05' W 093°20'2 3.6
2018-Jul-15 16:00N 30°06' W 093°18'1 1.2
2018-Jul-15 15:31N 30°07' W 093°18'0 0.1
2018-Jul-15 15:01N 30°07' W 093°18'1 2.5
2018-Jul-15 14:31N 30°06' W 093°19'2 3.5
2018-Jul-15 14:01N 30°05' W 093°20'1 1.3
2018-Jul-15 13:30N 30°05' W 093°20'0 0.3
2018-Jul-15 13:01N 30°05' W 093°20'0 0.0
2018-Jul-15 12:31N 30°05' W 093°20'0 0.0
2018-Jul-15 12:00N 30°05' W 093°20'0 0.2
2018-Jul-15 11:30N 30°05' W 093°20'1 1.4
2018-Jul-15 11:00N 30°06' W 093°20'2 3.5
2018-Jul-15 10:30N 30°07' W 093°20'3 5.1
2018-Jul-15 10:00N 30°10' W 093°19'3 6.2
2018-Jul-15 09:30N 30°12' W 093°17'2 2.5
2018-Jul-15 08:50N 30°13' W 093°15'0 0.1
2018-Jul-15 08:28N 30°13' W 093°15'0 0.1
2018-Jul-15 08:00N 30°13' W 093°15'0 0.4
2018-Jul-15 07:30N 30°13' W 093°15'0 0.2
2018-Jul-15 07:00N 30°13' W 093°15'3 6.1
2018-Jul-15 06:30N 30°11' W 093°18'3 6.2
2018-Jul-15 06:00N 30°08' W 093°20'3 6.2
2018-Jul-15 05:30N 30°05' W 093°20'1 2.3
2018-Jul-15 05:00N 30°04' W 093°20'0 0.2
2018-Jul-15 04:30N 30°05' W 093°20'0 0.6
2018-Jul-15 04:00N 30°05' W 093°20'0 0.0
2018-Jul-15 03:30N 30°05' W 093°20'0 0.0
2018-Jul-15 03:00N 30°05' W 093°20'0 0.0
2018-Jul-15 02:30N 30°05' W 093°20'0 0.0
2018-Jul-15 02:00N 30°05' W 093°20'0 0.0
2018-Jul-15 01:30N 30°05' W 093°20'0 0.0
2018-Jul-15 01:00N 30°05' W 093°20'0 0.6
2018-Jul-15 00:30N 30°05' W 093°20'2 4.2
2018-Jul-15 00:00N 30°04' W 093°22'0 0.8
2018-Jul-14 23:30N 30°04' W 093°23'0 0.1
2018-Jul-14 23:00N 30°04' W 093°23'1 2.6
2018-Jul-14 22:30N 30°04' W 093°21'0 0.9
2018-Jul-14 22:00N 30°04' W 093°22'0 0.8
2018-Jul-14 21:30N 30°04' W 093°21'3 5.2
2018-Jul-14 21:00N 30°06' W 093°20'1 1.6
2018-Jul-14 20:30N 30°05' W 093°20'0 0.0
2018-Jul-14 20:00N 30°05' W 093°20'0 0.6
2018-Jul-14 19:30N 30°05' W 093°20'2 4.0
2018-Jul-14 19:00N 30°07' W 093°20'3 6.1
2018-Jul-14 18:30N 30°10' W 093°19'3 6.4
2018-Jul-14 18:00N 30°12' W 093°17'2 2.3
2018-Jul-14 17:21N 30°13' W 093°15'0 0.1
2018-Jul-14 16:59N 30°13' W 093°15'0 0.4
2018-Jul-14 16:30N 30°13' W 093°15'0 1.0
2018-Jul-14 16:00N 30°13' W 093°16'2 3.5
2018-Jul-14 15:30N 30°12' W 093°17'3 6.8
2018-Jul-14 15:00N 30°09' W 093°20'4 7.1
2018-Jul-14 14:30N 30°06' W 093°20'1 1.1
2018-Jul-14 13:30N 30°05' W 093°20'1 2.8
2018-Jul-14 13:00N 30°04' W 093°21'0 0.0
2018-Jul-14 12:30N 30°04' W 093°21'0 0.0
2018-Jul-14 12:00N 30°04' W 093°21'2 4.2
2018-Jul-14 11:30N 30°05' W 093°20'0 0.6
2018-Jul-14 11:00N 30°06' W 093°20'0 0.0
2018-Jul-14 10:30N 30°06' W 093°20'0 0.0
2018-Jul-14 09:59N 30°06' W 093°20'0 0.0
2018-Jul-14 09:30N 30°06' W 093°20'0 0.0
2018-Jul-14 09:00N 30°06' W 093°20'0 0.0
2018-Jul-14 08:30N 30°06' W 093°20'1 1.3
2018-Jul-14 08:00N 30°05' W 093°20'0 0.1
2018-Jul-14 07:30N 30°05' W 093°20'2 3.8
2018-Jul-14 07:00N 30°06' W 093°18'0 1.0
2018-Jul-14 06:30N 30°07' W 093°18'2 4.0
2018-Jul-14 06:00N 30°05' W 093°20'2 4.4
2018-Jul-14 05:30N 30°04' W 093°21'1 1.8
2018-Jul-14 05:00N 30°04' W 093°21'0 0.4
2018-Jul-14 04:30N 30°04' W 093°20'0 0.0
2018-Jul-14 04:00N 30°04' W 093°20'0 0.0
2018-Jul-14 03:29N 30°04' W 093°20'0 0.0
2018-Jul-14 03:00N 30°04' W 093°20'0 0.0
2018-Jul-14 02:30N 30°04' W 093°20'0 0.0
2018-Jul-14 01:59N 30°04' W 093°20'0 0.3
2018-Jul-14 01:30N 30°04' W 093°21'1 1.1
2018-Jul-14 01:00N 30°04' W 093°21'1 1.4
2018-Jul-14 00:30N 30°04' W 093°20'0 0.0
2018-Jul-14 00:00N 30°04' W 093°20'0 0.0
2018-Jul-13 23:30N 30°04' W 093°20'0 0.0
2018-Jul-13 23:00N 30°04' W 093°20'0 0.9
2018-Jul-13 22:30N 30°04' W 093°21'0 0.5
2018-Jul-13 22:00N 30°04' W 093°21'3 5.2
2018-Jul-13 21:30N 30°04' W 093°24'0 0.2
2018-Jul-13 21:00N 30°04' W 093°24'2 4.1
2018-Jul-13 20:30N 30°04' W 093°21'1 2.4
2018-Jul-13 20:00N 30°04' W 093°20'0 0.1
2018-Jul-13 19:30N 30°04' W 093°20'1 2.0
2018-Jul-13 19:00N 30°04' W 093°21'1 1.6
2018-Jul-13 18:30N 30°04' W 093°21'2 4.1
2018-Jul-13 18:00N 30°04' W 093°23'0 0.0
2018-Jul-13 17:30N 30°04' W 093°23'3 5.7
2018-Jul-13 17:00N 30°05' W 093°20'1 1.4
2018-Jul-13 16:30N 30°06' W 093°20'3 6.4
2018-Jul-13 16:00N 30°09' W 093°20'3 6.1
2018-Jul-13 15:30N 30°11' W 093°18'3 5.7
2018-Jul-13 15:00N 30°13' W 093°15'1 1.5
2018-Jul-13 14:30N 30°14' W 093°15'3 2.9
2018-Jul-13 13:30N 30°12' W 093°17'3 6.2
2018-Jul-13 13:00N 30°09' W 093°20'3 6.2
2018-Jul-13 12:30N 30°06' W 093°20'2 4.1
2018-Jul-13 12:00N 30°04' W 093°20'1 2.9
2018-Jul-13 11:30N 30°06' W 093°20'1 1.7
2018-Jul-13 11:00N 30°06' W 093°19'1 2.1
2018-Jul-13 10:30N 30°07' W 093°18'0 0.0
2018-Jul-13 10:00N 30°07' W 093°18'2 4.4
2018-Jul-13 09:30N 30°05' W 093°20'0 0.4
2018-Jul-13 09:00N 30°05' W 093°20'0 0.0
2018-Jul-13 08:30N 30°05' W 093°20'0 0.8
2018-Jul-13 08:00N 30°05' W 093°20'4 7.1
2018-Jul-13 07:30N 30°09' W 093°20'0 0.2
2018-Jul-13 07:00N 30°09' W 093°20'1 2.2
2018-Jul-13 06:30N 30°08' W 093°20'2 4.5
2018-Jul-13 06:01N 30°06' W 093°20'2 4.7
2018-Jul-13 05:30N 30°04' W 093°21'0 0.1
2018-Jul-13 05:00N 30°04' W 093°21'0 0.0
2018-Jul-13 04:30N 30°04' W 093°21'0 0.1
2018-Jul-13 04:00N 30°04' W 093°21'0 0.0
2018-Jul-13 03:30N 30°04' W 093°21'1 1.3
2018-Jul-13 03:01N 30°04' W 093°21'1 1.3
2018-Jul-13 02:30N 30°04' W 093°21'0 0.0
2018-Jul-13 02:00N 30°04' W 093°21'0 0.1
2018-Jul-13 01:30N 30°04' W 093°21'2 3.6
2018-Jul-13 01:00N 30°05' W 093°20'0 0.2
2018-Jul-13 00:30N 30°05' W 093°20'0 0.0
2018-Jul-13 00:00N 30°05' W 093°20'0 0.0
2018-Jul-12 23:31N 30°05' W 093°20'1 1.6
2018-Jul-12 23:00N 30°04' W 093°20'0 0.0
2018-Jul-12 22:30N 30°04' W 093°20'1 1.7
2018-Jul-12 22:00N 30°05' W 093°20'  
Track history (hours):
 
Tides and Currents Weather Stations Pressure Air Temp Water Temp Dewpoint Dewpoint Depression Visibility Wind Speed Wind Dir Waves Ship Positions

David C. Devall

Owner: DAVID C DEVALL INC, HACKBERRY, LA. More information available from US FCC via Universal Licensing System and Coast Guard Vessel Documentation Center.

Last reported at 2018-Jul-22 22:00 UTC. Time now 2018-Jul-22 22:11 UTC.
Position N 30°04' W 093°21'.

Length 17 m; draft 8.5 m.

Type: Towing. MMSI: 366973440.

Date/timePositionNaut miles runAvg speedWind from/ knotsBaromVisibWave heightAir tempDewpointWater temp
2018-Jul-22 22:00N 30°04' W 093°21'0 0.0
2018-Jul-22 21:30N 30°04' W 093°21'0 0.0
2018-Jul-22 21:00N 30°04' W 093°21'0 0.0
2018-Jul-22 20:30N 30°04' W 093°21'0 0.0
2018-Jul-22 20:00N 30°04' W 093°21'0 0.9
2018-Jul-22 19:30N 30°04' W 093°21'1 1.3
2018-Jul-22 19:00N 30°04' W 093°20'0 0.0
2018-Jul-22 18:30N 30°04' W 093°20'0 0.0
2018-Jul-22 18:00N 30°04' W 093°20'0 0.0
2018-Jul-22 17:30N 30°04' W 093°20'0 0.0
2018-Jul-22 16:54N 30°04' W 093°20'0 0.0
2018-Jul-22 16:30N 30°04' W 093°20'0 0.1
2018-Jul-22 16:00N 30°04' W 093°20'1 1.2
2018-Jul-22 15:00N 30°06' W 093°20'0 0.0
2018-Jul-22 14:09N 30°06' W 093°20'0 0.0
2018-Jul-22 13:59N 30°06' W 093°20'0 0.0
2018-Jul-22 12:26N 30°06' W 093°20'0 0.0
2018-Jul-22 11:39N 30°06' W 093°20'0 0.0
2018-Jul-22 11:26N 30°06' W 093°20'0 0.0
2018-Jul-22 10:54N 30°06' W 093°20'0 0.0
2018-Jul-22 10:30N 30°06' W 093°20'0 0.0
2018-Jul-22 10:00N 30°06' W 093°20'0 0.0
2018-Jul-22 09:27N 30°06' W 093°20'0 0.0
2018-Jul-22 08:57N 30°06' W 093°20'0 0.0
2018-Jul-22 08:26N 30°06' W 093°20'0 0.0
2018-Jul-22 07:54N 30°06' W 093°20'0 0.0
2018-Jul-22 07:30N 30°06' W 093°20'0 0.0
2018-Jul-22 07:00N 30°06' W 093°20'0 0.0
2018-Jul-22 06:30N 30°06' W 093°20'0 0.0
2018-Jul-22 06:00N 30°06' W 093°20'0 0.0
2018-Jul-22 05:30N 30°06' W 093°20'0 0.0
2018-Jul-22 05:00N 30°06' W 093°20'1 1.5
2018-Jul-22 04:31N 30°05' W 093°20'1 1.4
2018-Jul-22 04:00N 30°06' W 093°20'0 0.2
2018-Jul-22 03:30N 30°06' W 093°20'0 0.3
2018-Jul-22 03:00N 30°06' W 093°20'0 0.3
2018-Jul-22 02:30N 30°06' W 093°20'2 4.1
2018-Jul-22 02:00N 30°08' W 093°20'2 4.2
2018-Jul-22 01:30N 30°10' W 093°19'2 4.3
2018-Jul-22 01:00N 30°12' W 093°18'2 4.3
2018-Jul-22 00:30N 30°13' W 093°16'1 2.6
2018-Jul-21 23:58N 30°14' W 093°15'1 3.1
2018-Jul-21 23:30N 30°15' W 093°14'1 1.4
2018-Jul-21 22:54N 30°15' W 093°14'1 3.2
2018-Jul-21 22:30N 30°15' W 093°12'0 0.4
2018-Jul-21 21:59N 30°15' W 093°12'0 0.1
2018-Jul-21 21:29N 30°15' W 093°12'1 2.3
2018-Jul-21 20:56N 30°15' W 093°14'1 2.4
2018-Jul-21 20:30N 30°15' W 093°15'1 1.6
2018-Jul-21 19:41N 30°14' W 093°15'0 0.0
2018-Jul-21 19:26N 30°14' W 093°15'1 3.0
2018-Jul-21 19:00N 30°13' W 093°16'3 6.0
2018-Jul-21 18:30N 30°11' W 093°19'3 5.8
2018-Jul-21 18:00N 30°08' W 093°20'3 5.4
2018-Jul-21 17:31N 30°06' W 093°20'0 0.3
2018-Jul-21 17:00N 30°06' W 093°20'3 6.8
2018-Jul-21 16:30N 30°09' W 093°20'3 6.1
2018-Jul-21 16:00N 30°12' W 093°18'3 5.6
2018-Jul-21 15:30N 30°14' W 093°15'0 0.6
2018-Jul-21 15:00N 30°14' W 093°15'0 0.0
2018-Jul-21 14:30N 30°14' W 093°15'0 0.8
2018-Jul-21 14:00N 30°14' W 093°15'0 0.8
2018-Jul-21 13:30N 30°14' W 093°15'1 2.0
2018-Jul-21 13:00N 30°13' W 093°14'1 2.5
2018-Jul-21 12:30N 30°13' W 093°16'2 3.5
2018-Jul-21 11:59N 30°12' W 093°18'2 3.6
2018-Jul-21 11:30N 30°10' W 093°19'2 3.2
2018-Jul-21 11:00N 30°09' W 093°20'2 3.2
2018-Jul-21 10:30N 30°07' W 093°20'2 3.1
2018-Jul-21 10:00N 30°06' W 093°20'1 2.7
2018-Jul-21 09:30N 30°05' W 093°20'1 2.6
2018-Jul-21 09:00N 30°04' W 093°21'2 4.0
2018-Jul-21 08:30N 30°04' W 093°24'2 4.8
2018-Jul-21 08:00N 30°04' W 093°26'1 1.3
2018-Jul-21 07:30N 30°04' W 093°27'1 2.2
2018-Jul-21 06:57N 30°04' W 093°28'2 4.1
2018-Jul-21 06:29N 30°04' W 093°31'1 1.5
2018-Jul-21 06:00N 30°04' W 093°32'1 1.0
2018-Jul-21 05:24N 30°04' W 093°32'0 0.0
2018-Jul-21 05:00N 30°04' W 093°32'0 0.4
2018-Jul-21 04:30N 30°04' W 093°32'2 2.6
2018-Jul-21 03:46N 30°04' W 093°35'3 5.1
2018-Jul-21 03:13N 30°04' W 093°38'3 5.5
2018-Jul-21 02:45N 30°04' W 093°41'2 5.8
2018-Jul-21 02:25N 30°03' W 093°43'2 5.8
2018-Jul-21 02:00N 30°01' W 093°45'3 5.8
2018-Jul-21 01:29N 29°59' W 093°47'3 5.8
2018-Jul-21 01:00N 29°58' W 093°50'3 5.4
2018-Jul-21 00:30N 29°59' W 093°54'3 6.8
2018-Jul-21 00:00N 30°00' W 093°57'3 5.3
2018-Jul-20 23:30N 30°01' W 094°00'3 5.5
2018-Jul-20 23:00N 30°03' W 094°02'3 5.8
2018-Jul-20 22:30N 30°05' W 094°05'0 0.5
2018-Jul-20 22:00N 30°05' W 094°05'3 5.2
2018-Jul-20 21:31N 30°04' W 094°02'3 5.4
2018-Jul-20 21:00N 30°01' W 094°01'3 5.8
2018-Jul-20 20:30N 30°01' W 093°58'3 5.7
2018-Jul-20 20:00N 29°59' W 093°55'3 5.7
2018-Jul-20 19:30N 29°59' W 093°52'3 5.2
2018-Jul-20 19:00N 29°59' W 093°49'3 5.8
2018-Jul-20 18:30N 30°00' W 093°46'3 5.8
2018-Jul-20 18:00N 30°03' W 093°44'3 5.7
2018-Jul-20 17:29N 30°04' W 093°40'3 5.9
2018-Jul-20 16:57N 30°04' W 093°37'3 5.7
2018-Jul-20 16:30N 30°04' W 093°34'3 5.7
2018-Jul-20 16:00N 30°04' W 093°31'3 5.8
2018-Jul-20 15:30N 30°04' W 093°27'3 5.8
2018-Jul-20 15:00N 30°04' W 093°24'3 5.4
2018-Jul-20 14:30N 30°04' W 093°21'3 6.0
2018-Jul-20 14:00N 30°06' W 093°19'0 0.4
2018-Jul-20 13:29N 30°06' W 093°18'1 2.9
2018-Jul-20 13:00N 30°06' W 093°20'0 0.0
2018-Jul-20 12:29N 30°06' W 093°20'0 0.0
2018-Jul-20 12:00N 30°06' W 093°20'0 0.0
2018-Jul-20 11:30N 30°06' W 093°20'0 0.0
2018-Jul-20 11:00N 30°06' W 093°20'0 0.0
2018-Jul-20 10:30N 30°06' W 093°20'0 0.0
2018-Jul-20 10:00N 30°06' W 093°20'0 0.0
2018-Jul-20 09:30N 30°06' W 093°20'0 0.0
2018-Jul-20 09:00N 30°06' W 093°20'0 0.0
2018-Jul-20 08:30N 30°06' W 093°20'0 0.0
2018-Jul-20 08:00N 30°06' W 093°20'0 0.0
2018-Jul-20 07:30N 30°06' W 093°20'0 0.0
2018-Jul-20 07:00N 30°06' W 093°20'0 0.0
2018-Jul-20 06:30N 30°06' W 093°20'0 0.0
2018-Jul-20 06:00N 30°06' W 093°20'0 0.0
2018-Jul-20 05:29N 30°06' W 093°20'0 0.1
2018-Jul-20 05:00N 30°06' W 093°20'0 0.1
2018-Jul-20 04:30N 30°06' W 093°20'1 1.9
2018-Jul-20 04:00N 30°06' W 093°19'1 1.0
2018-Jul-20 03:30N 30°06' W 093°19'2 3.8
2018-Jul-20 03:00N 30°04' W 093°21'0 0.1
2018-Jul-20 02:30N 30°04' W 093°21'2 3.3
2018-Jul-20 02:00N 30°06' W 093°19'1 1.6
2018-Jul-20 01:31N 30°06' W 093°19'1 2.8
2018-Jul-20 01:00N 30°05' W 093°20'0 0.0
2018-Jul-20 00:30N 30°05' W 093°20'0 0.0
2018-Jul-20 00:00N 30°05' W 093°20'0 0.0
2018-Jul-19 23:30N 30°05' W 093°20'0 0.0
2018-Jul-19 23:00N 30°05' W 093°20'2 3.6
2018-Jul-19 22:31N 30°04' W 093°21'0 0.0
2018-Jul-19 22:00N 30°04' W 093°21'0 0.0
2018-Jul-19 21:30N 30°04' W 093°21'0 0.0
2018-Jul-19 21:00N 30°04' W 093°21'0 0.0
2018-Jul-19 20:30N 30°04' W 093°21'0 0.0
2018-Jul-19 20:00N 30°04' W 093°21'0 0.0
2018-Jul-19 19:30N 30°04' W 093°21'0 0.0
2018-Jul-19 19:00N 30°04' W 093°21'0 0.0
2018-Jul-19 18:30N 30°04' W 093°21'1 1.5
2018-Jul-19 18:00N 30°04' W 093°21'0 0.4
2018-Jul-19 17:30N 30°04' W 093°20'0 0.2
2018-Jul-19 17:01N 30°04' W 093°20'0 0.0
2018-Jul-19 16:31N 30°04' W 093°20'0 0.2
2018-Jul-19 16:00N 30°05' W 093°20'1 1.4
2018-Jul-19 15:30N 30°05' W 093°20'2 3.8
2018-Jul-19 15:00N 30°07' W 093°20'4 4.1
2018-Jul-19 14:00N 30°11' W 093°19'2 4.4
2018-Jul-19 13:30N 30°12' W 093°17'1 2.5
2018-Jul-19 13:00N 30°14' W 093°17'0 0.0
2018-Jul-19 12:30N 30°14' W 093°17'0 0.2
2018-Jul-19 11:58N 30°13' W 093°17'0 0.2
2018-Jul-19 11:30N 30°14' W 093°17'0 0.2
2018-Jul-19 11:00N 30°13' W 093°17'1 1.4
2018-Jul-19 10:30N 30°13' W 093°17'3 5.5
2018-Jul-19 10:00N 30°11' W 093°19'3 5.4
2018-Jul-19 09:30N 30°08' W 093°20'3 5.0
2018-Jul-19 09:00N 30°06' W 093°20'0 0.0
2018-Jul-19 08:30N 30°06' W 093°20'0 0.0
2018-Jul-19 08:00N 30°06' W 093°20'0 0.0
2018-Jul-19 07:30N 30°06' W 093°20'0 0.0
2018-Jul-19 07:00N 30°06' W 093°20'0 0.0
2018-Jul-19 06:30N 30°06' W 093°20'0 0.0
2018-Jul-19 06:00N 30°06' W 093°20'0 0.7
2018-Jul-19 05:31N 30°06' W 093°19'3 5.1
2018-Jul-19 05:01N 30°04' W 093°21'0 0.1
2018-Jul-19 04:30N 30°04' W 093°21'2 4.8
2018-Jul-19 04:01N 30°06' W 093°20'0 0.5
2018-Jul-19 03:31N 30°06' W 093°20'3 5.4
2018-Jul-19 03:00N 30°04' W 093°22'2 4.4
2018-Jul-19 02:30N 30°05' W 093°20'0 0.2
2018-Jul-19 02:00N 30°05' W 093°20'0 0.0
2018-Jul-19 01:30N 30°05' W 093°20'0 0.0
2018-Jul-19 01:00N 30°05' W 093°20'0 0.0
2018-Jul-19 00:30N 30°05' W 093°20'0 0.0
2018-Jul-19 00:00N 30°05' W 093°20'0 0.5
2018-Jul-18 23:30N 30°05' W 093°20'2 3.5
2018-Jul-18 23:01N 30°04' W 093°21'1 1.1
2018-Jul-18 22:30N 30°04' W 093°21'2 4.3
2018-Jul-18 22:00N 30°06' W 093°20'3 5.2
2018-Jul-18 21:30N 30°09' W 093°20'2 4.9
2018-Jul-18 21:00N 30°11' W 093°19'3 5.2
2018-Jul-18 20:30N 30°12' W 093°16'2 3.9
2018-Jul-18 20:00N 30°13' W 093°14'2 3.9
2018-Jul-18 19:30N 30°15' W 093°14'1 1.4
2018-Jul-18 19:00N 30°15' W 093°14'2 2.8
2018-Jul-18 18:28N 30°15' W 093°12'2 3.4
2018-Jul-18 18:00N 30°15' W 093°14'1 1.3
2018-Jul-18 17:30N 30°15' W 093°15'2 3.4
2018-Jul-18 16:59N 30°13' W 093°15'3 5.8
2018-Jul-18 16:30N 30°12' W 093°18'3 6.3
2018-Jul-18 16:01N 30°09' W 093°20'3 6.4
2018-Jul-18 15:30N 30°06' W 093°20'1 2.1
2018-Jul-18 15:00N 30°05' W 093°20'0 0.0
2018-Jul-18 14:30N 30°05' W 093°20'2 2.2
2018-Jul-18 13:30N 30°04' W 093°22'0 0.7
2018-Jul-18 13:00N 30°04' W 093°21'0 1.0
2018-Jul-18 12:30N 30°04' W 093°21'0 0.0
2018-Jul-18 12:00N 30°04' W 093°21'0 0.0
2018-Jul-18 11:30N 30°04' W 093°21'0 0.2
2018-Jul-18 10:30N 30°04' W 093°21'2 3.5
2018-Jul-18 10:00N 30°06' W 093°20'1 2.0
2018-Jul-18 09:30N 30°05' W 093°20'0 0.7
2018-Jul-18 09:00N 30°04' W 093°20'0 0.1
2018-Jul-18 08:30N 30°04' W 093°20'1 2.8
2018-Jul-18 08:00N 30°06' W 093°20'3 6.0
2018-Jul-18 07:30N 30°08' W 093°20'0 0.8
2018-Jul-18 07:00N 30°09' W 093°20'2 3.3
2018-Jul-18 06:30N 30°07' W 093°20'2 4.7
2018-Jul-18 06:00N 30°05' W 093°20'1 2.7
2018-Jul-18 05:30N 30°04' W 093°21'0 0.4
2018-Jul-18 05:00N 30°04' W 093°21'0 0.0
2018-Jul-18 04:30N 30°04' W 093°21'0 0.0
2018-Jul-18 04:00N 30°04' W 093°21'0 0.2
2018-Jul-18 03:30N 30°04' W 093°21'0 0.2
2018-Jul-18 03:00N 30°04' W 093°21'0 1.0
2018-Jul-18 02:30N 30°04' W 093°22'1 1.6
2018-Jul-18 02:00N 30°04' W 093°23'0 0.6
2018-Jul-18 01:30N 30°04' W 093°22'1 1.9
2018-Jul-18 01:00N 30°04' W 093°21'2 3.8
2018-Jul-18 00:30N 30°05' W 093°20'0 0.0
2018-Jul-18 00:00N 30°05' W 093°20'0 0.0
2018-Jul-17 23:30N 30°05' W 093°20'1 1.5
2018-Jul-17 23:00N 30°04' W 093°20'1 2.9
2018-Jul-17 22:30N 30°04' W 093°22'0 0.8
2018-Jul-17 22:00N 30°04' W 093°21'0 0.0
2018-Jul-17 21:30N 30°04' W 093°21'0 0.0
2018-Jul-17 21:00N 30°04' W 093°21'1 1.2
2018-Jul-17 20:30N 30°04' W 093°22'2 3.9
2018-Jul-17 20:00N 30°05' W 093°20'1 1.7
2018-Jul-17 19:30N 30°06' W 093°20'0 0.7
2018-Jul-17 19:00N 30°05' W 093°20'3 5.3
2018-Jul-17 18:31N 30°04' W 093°22'2 4.3
2018-Jul-17 18:00N 30°05' W 093°20'0 0.0
2018-Jul-17 17:30N 30°05' W 093°20'2 3.5
2018-Jul-17 17:00N 30°04' W 093°21'1 1.9
2018-Jul-17 16:30N 30°04' W 093°20'1 1.6
2018-Jul-17 16:00N 30°05' W 093°20'1 1.7
2018-Jul-17 15:30N 30°04' W 093°21'3 5.4
2018-Jul-17 15:00N 30°07' W 093°20'3 6.0
2018-Jul-17 14:30N 30°10' W 093°19'0 0.9
2018-Jul-17 14:00N 30°10' W 093°19'1 2.0
2018-Jul-17 13:30N 30°11' W 093°18'2 4.2
2018-Jul-17 13:00N 30°13' W 093°17'1 1.9
2018-Jul-17 12:30N 30°14' W 093°17'0 0.1
2018-Jul-17 12:00N 30°14' W 093°17'2 5.0
2018-Jul-17 11:30N 30°11' W 093°18'3 5.9
2018-Jul-17 11:00N 30°09' W 093°20'3 5.5
2018-Jul-17 10:30N 30°06' W 093°20'2 3.2
2018-Jul-17 10:00N 30°05' W 093°20'0 0.1
2018-Jul-17 09:30N 30°05' W 093°20'1 1.0
2018-Jul-17 09:00N 30°05' W 093°20'0 0.4
2018-Jul-17 08:31N 30°05' W 093°20'0 0.8
2018-Jul-17 08:00N 30°05' W 093°20'0 0.0
2018-Jul-17 07:30N 30°05' W 093°20'0 0.0
2018-Jul-17 07:00N 30°05' W 093°20'0 0.0
2018-Jul-17 06:30N 30°05' W 093°20'0 0.0
2018-Jul-17 06:00N 30°05' W 093°20'0 0.0
2018-Jul-17 05:28N 30°05' W 093°20'0 0.0
2018-Jul-17 05:00N 30°05' W 093°20'0 0.0
2018-Jul-17 04:29N 30°05' W 093°20'0 0.0
2018-Jul-17 03:58N 30°05' W 093°20'0 0.0
2018-Jul-17 03:30N 30°05' W 093°20'0 0.0
2018-Jul-17 03:00N 30°05' W 093°20'0 0.0
2018-Jul-17 02:30N 30°05' W 093°20'0 0.0
2018-Jul-17 02:00N 30°05' W 093°20'0 0.0
2018-Jul-17 01:30N 30°05' W 093°20'0 0.0
2018-Jul-17 01:00N 30°05' W 093°20'0 0.0
2018-Jul-17 00:30N 30°05' W 093°20'0 0.0
2018-Jul-16 23:30N 30°05' W 093°20'0 0.0
2018-Jul-16 23:00N 30°05' W 093°20'0 0.6
2018-Jul-16 22:30N 30°05' W 093°20'0 0.0
2018-Jul-16 22:00N 30°05' W 093°20'2 3.6
2018-Jul-16 21:30N 30°07' W 093°20'3 5.7
2018-Jul-16 21:00N 30°10' W 093°19'3 5.8
2018-Jul-16 20:30N 30°12' W 093°17'3 5.0
2018-Jul-16 20:00N 30°13' W 093°15'0 1.0
2018-Jul-16 19:30N 30°14' W 093°15'1 2.6
2018-Jul-16 19:00N 30°13' W 093°16'3 5.5
2018-Jul-16 18:30N 30°11' W 093°18'3 5.5
2018-Jul-16 18:00N 30°09' W 093°20'3 6.0
2018-Jul-16 17:30N 30°06' W 093°20'0 0.4
2018-Jul-16 17:00N 30°06' W 093°20'2 4.0
2018-Jul-16 16:30N 30°07' W 093°18'0 0.1
2018-Jul-16 16:01N 30°07' W 093°18'0 0.2
2018-Jul-16 15:30N 30°07' W 093°18'3 5.1
2018-Jul-16 14:59N 30°05' W 093°20'0 0.0
2018-Jul-16 14:30N 30°05' W 093°20'0 0.0
2018-Jul-16 14:00N 30°05' W 093°20'0 0.6
2018-Jul-16 13:29N 30°04' W 093°20'0 0.0
2018-Jul-16 13:01N 30°04' W 093°20'0 0.7
2018-Jul-16 12:31N 30°05' W 093°20'0 0.1
2018-Jul-16 11:59N 30°05' W 093°20'0 0.5
2018-Jul-16 11:30N 30°05' W 093°20'0 0.4
2018-Jul-16 11:00N 30°05' W 093°20'1 1.5
2018-Jul-16 10:31N 30°04' W 093°21'1 1.6
2018-Jul-16 10:01N 30°04' W 093°21'1 1.9
2018-Jul-16 09:31N 30°04' W 093°21'1 1.9
2018-Jul-16 09:01N 30°05' W 093°20'0 0.1
2018-Jul-16 08:31N 30°05' W 093°20'0 0.2
2018-Jul-16 08:01N 30°05' W 093°20'0 1.0
2018-Jul-16 07:30N 30°05' W 093°20'1 1.6
2018-Jul-16 06:59N 30°04' W 093°21'0 0.1
2018-Jul-16 06:30N 30°04' W 093°21'0 0.0
2018-Jul-16 06:00N 30°04' W 093°21'2 3.1
2018-Jul-16 05:30N 30°04' W 093°22'0 0.1
2018-Jul-16 05:00N 30°04' W 093°22'1 2.0
2018-Jul-16 04:31N 30°04' W 093°21'2 3.3
2018-Jul-16 04:00N 30°05' W 093°20'2 4.3
2018-Jul-16 03:30N 30°07' W 093°20'2 4.9
2018-Jul-16 03:01N 30°10' W 093°19'3 5.1
2018-Jul-16 02:30N 30°12' W 093°18'2 3.9
2018-Jul-16 02:01N 30°13' W 093°17'0 0.9
2018-Jul-16 01:31N 30°13' W 093°17'3 6.0
2018-Jul-16 01:00N 30°11' W 093°19'3 6.0
2018-Jul-16 00:30N 30°08' W 093°20'3 5.5
2018-Jul-16 00:01N 30°05' W 093°20'0 0.0
2018-Jul-15 23:31N 30°05' W 093°20'0 0.0
2018-Jul-15 23:00N 30°05' W 093°20'2 3.3
2018-Jul-15 22:31N 30°07' W 093°20'2 4.8
2018-Jul-15 22:01N 30°09' W 093°20'0 0.4
2018-Jul-15 21:31N 30°09' W 093°20'3 5.8
2018-Jul-15 21:01N 30°06' W 093°20'1 2.9
2018-Jul-15 20:30N 30°05' W 093°20'1 1.2
2018-Jul-15 20:01N 30°05' W 093°20'0 0.3
2018-Jul-15 19:30N 30°05' W 093°20'1 1.5
2018-Jul-15 19:00N 30°04' W 093°20'0 0.2
2018-Jul-15 18:31N 30°05' W 093°20'1 1.4
2018-Jul-15 18:01N 30°05' W 093°20'0 0.0
2018-Jul-15 17:31N 30°05' W 093°20'0 0.0
2018-Jul-15 17:01N 30°05' W 093°20'0 0.0
2018-Jul-15 16:31N 30°05' W 093°20'2 3.6
2018-Jul-15 16:00N 30°06' W 093°18'1 1.2
2018-Jul-15 15:31N 30°07' W 093°18'0 0.1
2018-Jul-15 15:01N 30°07' W 093°18'1 2.5
2018-Jul-15 14:31N 30°06' W 093°19'2 3.5
2018-Jul-15 14:01N 30°05' W 093°20'1 1.3
2018-Jul-15 13:30N 30°05' W 093°20'0 0.3
2018-Jul-15 13:01N 30°05' W 093°20'0 0.0
2018-Jul-15 12:31N 30°05' W 093°20'0 0.0
2018-Jul-15 12:00N 30°05' W 093°20'0 0.2
2018-Jul-15 11:30N 30°05' W 093°20'1 1.4
2018-Jul-15 11:00N 30°06' W 093°20'2 3.5
2018-Jul-15 10:30N 30°07' W 093°20'3 5.1
2018-Jul-15 10:00N 30°10' W 093°19'3 6.2
2018-Jul-15 09:30N 30°12' W 093°17'2 2.5
2018-Jul-15 08:50N 30°13' W 093°15'0 0.1
2018-Jul-15 08:28N 30°13' W 093°15'0 0.1
2018-Jul-15 08:00N 30°13' W 093°15'0 0.4
2018-Jul-15 07:30N 30°13' W 093°15'0 0.2
2018-Jul-15 07:00N 30°13' W 093°15'3 6.1
2018-Jul-15 06:30N 30°11' W 093°18'3 6.2
2018-Jul-15 06:00N 30°08' W 093°20'3 6.2
2018-Jul-15 05:30N 30°05' W 093°20'1 2.3
2018-Jul-15 05:00N 30°04' W 093°20'0 0.2
2018-Jul-15 04:30N 30°05' W 093°20'0 0.6
2018-Jul-15 04:00N 30°05' W 093°20'0 0.0
2018-Jul-15 03:30N 30°05' W 093°20'0 0.0
2018-Jul-15 03:00N 30°05' W 093°20'0 0.0
2018-Jul-15 02:30N 30°05' W 093°20'0 0.0
2018-Jul-15 02:00N 30°05' W 093°20'0 0.0
2018-Jul-15 01:30N 30°05' W 093°20'0 0.0
2018-Jul-15 01:00N 30°05' W 093°20'0 0.6
2018-Jul-15 00:30N 30°05' W 093°20'2 4.2
2018-Jul-15 00:00N 30°04' W 093°22'0 0.8
2018-Jul-14 23:30N 30°04' W 093°23'0 0.1
2018-Jul-14 23:00N 30°04' W 093°23'1 2.6
2018-Jul-14 22:30N 30°04' W 093°21'0 0.9
2018-Jul-14 22:00N 30°04' W 093°22'0 0.8
2018-Jul-14 21:30N 30°04' W 093°21'3 5.2
2018-Jul-14 21:00N 30°06' W 093°20'1 1.6
2018-Jul-14 20:30N 30°05' W 093°20'0 0.0
2018-Jul-14 20:00N 30°05' W 093°20'0 0.6
2018-Jul-14 19:30N 30°05' W 093°20'2 4.0
2018-Jul-14 19:00N 30°07' W 093°20'3 6.1
2018-Jul-14 18:30N 30°10' W 093°19'3 6.4
2018-Jul-14 18:00N 30°12' W 093°17'2 2.3
2018-Jul-14 17:21N 30°13' W 093°15'0 0.1
2018-Jul-14 16:59N 30°13' W 093°15'0 0.4
2018-Jul-14 16:30N 30°13' W 093°15'0 1.0
2018-Jul-14 16:00N 30°13' W 093°16'2 3.5
2018-Jul-14 15:30N 30°12' W 093°17'3 6.8
2018-Jul-14 15:00N 30°09' W 093°20'4 7.1
2018-Jul-14 14:30N 30°06' W 093°20'1 1.1
2018-Jul-14 13:30N 30°05' W 093°20'1 2.8
2018-Jul-14 13:00N 30°04' W 093°21'0 0.0
2018-Jul-14 12:30N 30°04' W 093°21'0 0.0
2018-Jul-14 12:00N 30°04' W 093°21'2 4.2
2018-Jul-14 11:30N 30°05' W 093°20'0 0.6
2018-Jul-14 11:00N 30°06' W 093°20'0 0.0
2018-Jul-14 10:30N 30°06' W 093°20'0 0.0
2018-Jul-14 09:59N 30°06' W 093°20'0 0.0
2018-Jul-14 09:30N 30°06' W 093°20'0 0.0
2018-Jul-14 09:00N 30°06' W 093°20'0 0.0
2018-Jul-14 08:30N 30°06' W 093°20'1 1.3
2018-Jul-14 08:00N 30°05' W 093°20'0 0.1
2018-Jul-14 07:30N 30°05' W 093°20'2 3.8
2018-Jul-14 07:00N 30°06' W 093°18'0 1.0
2018-Jul-14 06:30N 30°07' W 093°18'2 4.0
2018-Jul-14 06:00N 30°05' W 093°20'2 4.4
2018-Jul-14 05:30N 30°04' W 093°21'1 1.8
2018-Jul-14 05:00N 30°04' W 093°21'0 0.4
2018-Jul-14 04:30N 30°04' W 093°20'0 0.0
2018-Jul-14 04:00N 30°04' W 093°20'0 0.0
2018-Jul-14 03:29N 30°04' W 093°20'0 0.0
2018-Jul-14 03:00N 30°04' W 093°20'0 0.0
2018-Jul-14 02:30N 30°04' W 093°20'0 0.0
2018-Jul-14 01:59N 30°04' W 093°20'0 0.3
2018-Jul-14 01:30N 30°04' W 093°21'1 1.1
2018-Jul-14 01:00N 30°04' W 093°21'1 1.4
2018-Jul-14 00:30N 30°04' W 093°20'0 0.0
2018-Jul-14 00:00N 30°04' W 093°20'0 0.0
2018-Jul-13 23:30N 30°04' W 093°20'0 0.0
2018-Jul-13 23:00N 30°04' W 093°20'0 0.9
2018-Jul-13 22:30N 30°04' W 093°21'0 0.5
2018-Jul-13 22:00N 30°04' W 093°21'3 5.2
2018-Jul-13 21:30N 30°04' W 093°24'0 0.2
2018-Jul-13 21:00N 30°04' W 093°24'2 4.1
2018-Jul-13 20:30N 30°04' W 093°21'1 2.4
2018-Jul-13 20:00N 30°04' W 093°20'0 0.1
2018-Jul-13 19:30N 30°04' W 093°20'1 2.0
2018-Jul-13 19:00N 30°04' W 093°21'1 1.6
2018-Jul-13 18:30N 30°04' W 093°21'2 4.1
2018-Jul-13 18:00N 30°04' W 093°23'0 0.0
2018-Jul-13 17:30N 30°04' W 093°23'3 5.7
2018-Jul-13 17:00N 30°05' W 093°20'1 1.4
2018-Jul-13 16:30N 30°06' W 093°20'3 6.4
2018-Jul-13 16:00N 30°09' W 093°20'3 6.1
2018-Jul-13 15:30N 30°11' W 093°18'3 5.7
2018-Jul-13 15:00N 30°13' W 093°15'1 1.5
2018-Jul-13 14:30N 30°14' W 093°15'3 2.9
2018-Jul-13 13:30N 30°12' W 093°17'3 6.2
2018-Jul-13 13:00N 30°09' W 093°20'3 6.2
2018-Jul-13 12:30N 30°06' W 093°20'2 4.1
2018-Jul-13 12:00N 30°04' W 093°20'1 2.9
2018-Jul-13 11:30N 30°06' W 093°20'1 1.7
2018-Jul-13 11:00N 30°06' W 093°19'1 2.1
2018-Jul-13 10:30N 30°07' W 093°18'0 0.0
2018-Jul-13 10:00N 30°07' W 093°18'2 4.4
2018-Jul-13 09:30N 30°05' W 093°20'0 0.4
2018-Jul-13 09:00N 30°05' W 093°20'0 0.0
2018-Jul-13 08:30N 30°05' W 093°20'0 0.8
2018-Jul-13 08:00N 30°05' W 093°20'4 7.1
2018-Jul-13 07:30N 30°09' W 093°20'0 0.2
2018-Jul-13 07:00N 30°09' W 093°20'1 2.2
2018-Jul-13 06:30N 30°08' W 093°20'2 4.5
2018-Jul-13 06:01N 30°06' W 093°20'2 4.7
2018-Jul-13 05:30N 30°04' W 093°21'0 0.1
2018-Jul-13 05:00N 30°04' W 093°21'0 0.0
2018-Jul-13 04:30N 30°04' W 093°21'0 0.1
2018-Jul-13 04:00N 30°04' W 093°21'0 0.0
2018-Jul-13 03:30N 30°04' W 093°21'1 1.3
2018-Jul-13 03:01N 30°04' W 093°21'1 1.3
2018-Jul-13 02:30N 30°04' W 093°21'0 0.0
2018-Jul-13 02:00N 30°04' W 093°21'0 0.1
2018-Jul-13 01:30N 30°04' W 093°21'2 3.6
2018-Jul-13 01:00N 30°05' W 093°20'0 0.2
2018-Jul-13 00:30N 30°05' W 093°20'0 0.0
2018-Jul-13 00:00N 30°05' W 093°20'0 0.0
2018-Jul-12 23:31N 30°05' W 093°20'1 1.6
2018-Jul-12 23:00N 30°04' W 093°20'0 0.0
2018-Jul-12 22:30N 30°04' W 093°20'1 1.7
2018-Jul-12 22:00N 30°05' W 093°20'  

Dump ship's entire track history